M I D A S
Marine Information and Data Acquisition System
Tripno 1638 of the Zeeleeuw from 2009-02-03 07:50:40 to 2009-02-03 15:48:55
Back to CruiseResearch ActivitiesStationsMapUnderway DataData graphs

EquipmentUnitsComments
TimeDGPSUTC
LatitudeDGPSDM.mWGS84
LongitudeDGPSDM.mWGS84
SpeedMeteo Stationm/sRelative wind speed
DirectionMeteo StationdegRelative wind direction
TemperatureMeteo Stationdeg CelciusAir temperature
PressureMeteo StationPaAtmospheric pressure
HumidityMeteo Station%Relative humidity
Missing or incorrect values are displayed as -999
Metereological data collected by the RV Zeeleeuw from 2009-02-03 07:49:35 to 2009-02-03 16:00:02
Time Latitude Longitude Speed Direction Temperature Pressure Humidity
2009-02-03 07:50 51°13.675 2°55.913 -999 -999 -999 -999 -999
2009-02-03 07:51 51°13.696 2°55.829 -999 -999 -999 -999 -999
2009-02-03 07:52 51°13.704 2°55.76 -999 -999 -999 -999 -999
2009-02-03 07:53 51°13.704 2°55.764 -999 -999 -999 -999 -999
2009-02-03 07:54 51°13.729 2°55.748 -999 -999 -999 -999 -999
2009-02-03 07:55 51°13.824 2°55.649 -999 -999 -999 -999 -999
2009-02-03 07:56 51°13.944 2°55.547 -999 -999 -999 -999 -999
2009-02-03 07:57 51°14.071 2°55.452 -999 -999 -999 -999 -999
2009-02-03 07:58 51°14.198 2°55.338 -999 -999 -999 -999 -999
2009-02-03 07:59 51°14.312 2°55.168 -999 -999 -999 -999 -999
2009-02-03 08:00 51°14.423 2°54.964 -999 -999 -999 -999 -999
2009-02-03 08:01 51°14.572 2°54.796 3.3 6 -999 -999 -999
2009-02-03 08:02 51°14.744 2°54.638 5.4 246 -0.6 99920 83
2009-02-03 08:03 51°14.925 2°54.48 4.7 241 -0.6 99920 84
2009-02-03 08:04 51°15.105 2°54.326 2.9 245 -0.5 99920 86
2009-02-03 08:05 51°15.28 2°54.175 4.6 251 -0.5 99920 86
2009-02-03 08:06 51°15.459 2°54.023 4.9 258 -0.5 99920 87
2009-02-03 08:07 51°15.642 2°53.878 5.5 255 -0.5 99930 87
2009-02-03 08:08 51°15.822 2°53.718 5.1 251 -0.4 99930 88
2009-02-03 08:09 51°16.003 2°53.559 3.9 245 -0.4 99930 89
2009-02-03 08:10 51°16.188 2°53.417 4.5 248 -0.4 99930 88
2009-02-03 08:11 51°16.372 2°53.276 4 251 -0.4 99930 89
2009-02-03 08:12 51°16.556 2°53.129 4.1 251 -0.3 99930 90
2009-02-03 08:13 51°16.743 2°52.982 4.7 252 -0.3 99930 90
2009-02-03 08:14 51°16.927 2°52.834 3.9 249 -0.3 99930 89
2009-02-03 08:15 51°17.113 2°52.684 3.9 248 -0.3 99930 88
2009-02-03 08:16 51°17.298 2°52.542 3.1 260 -0.3 99940 90
2009-02-03 08:17 51°17.501 2°52.473 1.4 262 -0.3 99930 89
2009-02-03 08:18 51°17.709 2°52.446 1.2 255 -0.2 99940 90
2009-02-03 08:19 51°17.917 2°52.43 1 261 -0.2 99940 90
2009-02-03 08:20 51°18.124 2°52.404 1.4 253 -0.2 99940 90
2009-02-03 08:21 51°18.332 2°52.382 1.4 270 -0.2 99940 90
2009-02-03 08:22 51°18.541 2°52.377 0.8 34 -0.2 99930 90
2009-02-03 08:23 51°18.751 2°52.403 0.2 3 -0.2 99930 90
2009-02-03 08:24 51°18.956 2°52.452 1 331 -0.2 99940 90
2009-02-03 08:25 51°19.161 2°52.5 0.3 325 -0.1 99930 91
2009-02-03 08:26 51°19.362 2°52.582 1.2 7 -0.1 99930 91
2009-02-03 08:27 51°19.56 2°52.689 1.1 15 -0.1 99940 91
2009-02-03 08:28 51°19.76 2°52.788 1 352 -0.1 99940 91
2009-02-03 08:29 51°19.963 2°52.886 1.5 358 -0.1 99930 91
2009-02-03 08:30 51°20.166 2°52.981 1.7 11 -999 99940 91
2009-02-03 08:31 51°20.374 2°53.069 1.5 360 -999 99940 92
2009-02-03 08:32 51°20.582 2°53.166 2.6 352 -0.1 99940 92
2009-02-03 08:33 51°20.792 2°53.262 2.6 349 -999 99940 91
2009-02-03 08:34 51°21.001 2°53.361 2.6 356 -999 99950 91
2009-02-03 08:35 51°21.204 2°53.462 1.9 1 -999 99950 91
2009-02-03 08:36 51°21.404 2°53.562 1.7 6 -999 99960 92
2009-02-03 08:37 51°21.603 2°53.667 3.3 360 -999 99950 92
2009-02-03 08:38 51°21.788 2°53.818 2.8 2 -999 99950 91
2009-02-03 08:39 51°21.988 2°53.891 0.8 315 -999 99950 91
2009-02-03 08:40 51°22.197 2°53.871 1.7 31 -999 99950 91
2009-02-03 08:41 51°22.406 2°53.854 1.7 319 -999 99950 91
2009-02-03 08:42 51°22.618 2°53.849 2.5 32 0.1 99950 91
2009-02-03 08:43 51°22.833 2°53.864 1.8 238 0.1 99940 91
2009-02-03 08:44 51°23.051 2°53.894 1 33 0.1 99940 92
2009-02-03 08:45 51°23.265 2°53.918 0.7 34 0.2 99940 92
2009-02-03 08:46 51°23.475 2°53.941 0.4 322 0.2 99940 93
2009-02-03 08:47 51°23.687 2°53.972 0.1 336 0.2 99940 92
2009-02-03 08:48 51°23.899 2°54.011 0.8 342 0.2 99940 92
2009-02-03 08:49 51°24.11 2°54.042 0.7 338 0.2 99940 91
2009-02-03 08:50 51°24.321 2°54.076 0.8 339 0.1 99940 92
2009-02-03 08:51 51°24.532 2°54.114 0.6 331 0.1 99940 92
2009-02-03 08:52 51°24.743 2°54.141 0.9 323 0.1 99940 92
2009-02-03 08:53 51°24.958 2°54.166 0.8 30 0.1 99940 91
2009-02-03 08:54 51°25.171 2°54.204 0.8 321 0.2 99940 92
2009-02-03 08:55 51°25.379 2°54.236 0.3 36 0.2 99940 92
2009-02-03 08:56 51°25.588 2°54.276 0.5 323 0.3 99940 92
2009-02-03 08:57 51°25.799 2°54.307 0.4 318 0.3 99940 92
2009-02-03 08:58 51°26.012 2°54.344 0.1 34 0.3 99940 92
2009-02-03 08:59 51°26.223 2°54.379 0.1 316 0.4 99940 92
2009-02-03 09:00 51°26.434 2°54.411 1.2 323 0.4 99940 92
2009-02-03 09:01 51°26.644 2°54.44 0.7 330 0.5 99930 93
2009-02-03 09:02 51°26.856 2°54.471 0.8 318 0.6 99930 92
2009-02-03 09:03 51°27.071 2°54.499 0.1 323 0.6 99940 93
2009-02-03 09:04 51°27.285 2°54.533 0.3 330 0.6 99930 92
2009-02-03 09:05 51°27.502 2°54.559 0.9 327 0.6 99930 92
2009-02-03 09:06 51°27.719 2°54.582 1.6 243 0.7 99930 93
2009-02-03 09:07 51°27.935 2°54.595 1.5 255 0.7 99920 92
2009-02-03 09:08 51°28.145 2°54.641 0.5 267 0.8 99920 93
2009-02-03 09:09 51°28.355 2°54.692 0.7 33 0.8 99920 93
2009-02-03 09:10 51°28.568 2°54.74 0.5 264 0.8 99930 93
2009-02-03 09:11 51°28.781 2°54.791 0.9 37 0.8 99930 93
2009-02-03 09:12 51°28.99 2°54.838 0.2 36 0.9 99940 92
2009-02-03 09:13 51°29.198 2°54.894 1.2 241 0.9 99930 93
2009-02-03 09:14 51°29.407 2°54.951 0.6 246 1 99950 93
2009-02-03 09:15 51°29.616 2°55.002 0.9 36 1 99940 92
2009-02-03 09:16 51°29.828 2°55.054 1 339 1 99930 93
2009-02-03 09:17 51°30.034 2°55.098 0.6 245 1 99930 92
2009-02-03 09:18 51°30.245 2°55.153 0.2 325 1.1 99940 92
2009-02-03 09:19 51°30.455 2°55.202 1 31 1.1 99930 92
2009-02-03 09:20 51°30.663 2°55.269 0.7 340 1.2 99940 92
2009-02-03 09:21 51°30.868 2°55.364 1.7 339 1.2 99940 93
2009-02-03 09:22 51°31.072 2°55.465 0.7 349 1.2 99940 92
2009-02-03 09:23 51°31.281 2°55.564 0.9 348 1.1 99950 92
2009-02-03 09:24 51°31.485 2°55.647 0.7 32 1.1 99940 92
2009-02-03 09:25 51°31.613 2°55.705 1.5 37 1.2 99960 91
2009-02-03 09:26 51°31.711 2°55.743 3.5 36 1.3 99960 92
2009-02-03 09:27 51°31.804 2°55.774 3.2 38 1.2 99960 91
2009-02-03 09:28 51°31.884 2°55.75 5.3 41 1.2 99960 92
2009-02-03 09:29 51°31.944 2°55.71 4.4 266 1.2 99950 92
2009-02-03 09:30 51°31.995 2°55.687 5.3 30 1.2 99970 92
2009-02-03 09:31 51°32.045 2°55.706 5.4 38 1.2 99960 91
2009-02-03 09:32 51°32.071 2°55.763 5.4 23 1.2 99960 92
2009-02-03 09:33 51°32.084 2°55.794 6 15 1.3 99950 92
2009-02-03 09:34 51°32.096 2°55.817 7.1 12 1.2 99950 92
2009-02-03 09:35 51°32.108 2°55.835 4.2 7 1.2 99950 92
2009-02-03 09:36 51°32.122 2°55.849 5.4 11 1.1 99950 92
2009-02-03 09:37 51°32.131 2°55.867 7.2 356 1 99940 93
2009-02-03 09:38 51°32.104 2°55.878 6.5 325 1 99950 93
2009-02-03 09:39 51°32.094 2°55.823 7.6 244 1.1 99950 93
2009-02-03 09:40 51°32.11 2°55.797 5.2 254 1.1 99960 94
2009-02-03 09:41 51°32.13 2°55.787 5.4 261 1.2 99950 93
2009-02-03 09:42 51°32.149 2°55.781 5.6 260 1.3 99960 93
2009-02-03 09:43 51°32.168 2°55.779 7.3 254 1.3 99950 94
2009-02-03 09:44 51°32.187 2°55.78 6.8 256 1.3 99950 93
2009-02-03 09:45 51°32.204 2°55.781 4.5 261 1.4 99950 94
2009-02-03 09:46 51°32.222 2°55.783 8.2 256 1.4 99950 94
2009-02-03 09:47 51°32.242 2°55.78 7.4 253 1.5 99960 94
2009-02-03 09:48 51°32.266 2°55.74 5.9 240 1.5 99950 93
2009-02-03 09:49 51°32.285 2°55.7 8 245 1.6 99950 94
2009-02-03 09:50 51°32.301 2°55.673 6.5 242 1.6 99960 93
2009-02-03 09:51 51°32.317 2°55.655 7.6 240 1.6 99960 93
2009-02-03 09:52 51°32.334 2°55.644 6 243 1.7 99950 92
2009-02-03 09:53 51°32.352 2°55.637 4.9 254 1.7 99950 92
2009-02-03 09:54 51°32.369 2°55.631 6.6 249 1.7 99960 92
2009-02-03 09:55 51°32.386 2°55.622 6.3 244 1.7 99960 92
2009-02-03 09:56 51°32.397 2°55.574 6.6 33 1.7 99960 92
2009-02-03 09:57 51°32.386 2°55.469 7.8 317 1.7 99950 91
2009-02-03 09:58 51°32.375 2°55.401 9.3 319 1.7 99950 91
2009-02-03 09:59 51°32.372 2°55.362 6.6 324 1.7 99960 90
2009-02-03 10:00 51°32.375 2°55.338 6.9 37 1.7 99970 90
2009-02-03 10:01 51°32.385 2°55.321 6.9 38 1.8 99960 90
2009-02-03 10:02 51°32.4 2°55.309 7.4 30 1.8 99960 90
2009-02-03 10:03 51°32.417 2°55.302 6.5 244 1.7 99960 91
2009-02-03 10:04 51°32.434 2°55.299 7.5 250 1.7 99960 90
2009-02-03 10:05 51°32.452 2°55.3 7.7 258 1.8 99960 90
2009-02-03 10:06 51°32.469 2°55.301 5.6 266 1.7 99970 91
2009-02-03 10:07 51°32.485 2°55.303 5.9 262 1.7 99970 90
2009-02-03 10:08 51°32.502 2°55.307 5.4 265 1.7 99960 90
2009-02-03 10:09 51°32.518 2°55.309 5.8 261 1.6 99970 90
2009-02-03 10:10 51°32.54 2°55.273 8.5 35 1.6 99970 90
2009-02-03 10:11 51°32.526 2°55.197 9.6 325 1.7 99970 90
2009-02-03 10:12 51°32.484 2°55.098 8.9 325 1.7 99970 91
2009-02-03 10:13 51°32.444 2°55.002 10.2 326 1.7 99960 90
2009-02-03 10:14 51°32.423 2°54.95 9.5 330 1.7 99970 91
2009-02-03 10:15 51°32.41 2°54.919 9.1 329 1.7 99970 90
2009-02-03 10:16 51°32.405 2°54.899 5.9 327 1.6 99970 90
2009-02-03 10:17 51°32.405 2°54.886 8.5 327 1.7 99970 90
2009-02-03 10:18 51°32.41 2°54.877 8.2 318 1.7 99980 91
2009-02-03 10:19 51°32.423 2°54.871 6.9 36 1.7 99970 91
2009-02-03 10:20 51°32.437 2°54.869 8.7 246 1.7 99960 89
2009-02-03 10:21 51°32.453 2°54.87 8.2 254 1.7 99960 90
2009-02-03 10:22 51°32.467 2°54.87 5.7 263 1.7 99970 90
2009-02-03 10:23 51°32.48 2°54.871 5 266 1.7 99980 90
2009-02-03 10:24 51°32.493 2°54.873 5.8 262 1.7 99980 89
2009-02-03 10:25 51°32.505 2°54.877 6.3 265 1.7 99980 90
2009-02-03 10:26 51°32.517 2°54.882 5.1 264 1.7 99990 90
2009-02-03 10:27 51°32.528 2°54.887 6.7 266 1.7 99990 91
2009-02-03 10:28 51°32.539 2°54.891 4.8 262 1.7 99990 91
2009-02-03 10:29 51°32.55 2°54.896 4.1 267 1.7 99980 90
2009-02-03 10:30 51°32.561 2°54.899 4.7 265 1.8 99980 90
2009-02-03 10:31 51°32.572 2°54.904 5.9 263 1.7 99990 90
2009-02-03 10:32 51°32.59 2°54.887 8.6 246 1.7 99980 91
2009-02-03 10:33 51°32.584 2°54.813 9.5 328 1.8 99990 90
2009-02-03 10:34 51°32.549 2°54.798 8 355 1.7 99990 90
2009-02-03 10:35 51°32.535 2°54.823 7.5 13 1.7 99990 90
2009-02-03 10:36 51°32.535 2°54.842 7.1 9 1.6 99990 90
2009-02-03 10:37 51°32.536 2°54.855 6.6 8 1.6 99990 89
2009-02-03 10:38 51°32.536 2°54.867 6.8 1 1.8 99990 91
2009-02-03 10:39 51°32.495 2°54.855 9.8 332 1.7 99980 90
2009-02-03 10:40 51°32.41 2°54.684 13.3 327 1.7 99960 90
2009-02-03 10:41 51°32.305 2°54.464 12.4 324 1.7 99960 90
2009-02-03 10:42 51°32.197 2°54.24 10.9 327 1.8 99980 89
2009-02-03 10:43 51°32.093 2°54.017 11.3 330 1.8 99970 90
2009-02-03 10:44 51°31.992 2°53.8 13.1 325 1.8 99970 89
2009-02-03 10:45 51°31.892 2°53.589 10.9 327 1.8 99970 89
2009-02-03 10:46 51°31.8 2°53.395 10.9 325 1.8 99970 90
2009-02-03 10:47 51°31.723 2°53.191 11.4 324 1.8 99960 89
2009-02-03 10:48 51°31.665 2°52.987 12.2 323 1.9 99970 89
2009-02-03 10:49 51°31.605 2°52.822 11 331 1.8 99970 89
2009-02-03 10:50 51°31.536 2°52.752 8.3 333 2 100000 90
2009-02-03 10:51 51°31.483 2°52.689 9 327 1.9 99990 90
2009-02-03 10:52 51°31.446 2°52.588 10.3 323 1.9 99990 90
2009-02-03 10:53 51°31.391 2°52.534 8.6 351 1.9 99990 90
2009-02-03 10:54 51°31.349 2°52.563 8 350 1.8 99980 89
2009-02-03 10:55 51°31.307 2°52.561 8.8 348 1.8 99990 91
2009-02-03 10:56 51°31.283 2°52.561 7.2 350 1.8 99980 91
2009-02-03 10:57 51°31.281 2°52.569 6.4 354 1.7 99990 89
2009-02-03 10:58 51°31.283 2°52.578 5.9 7 1.8 99990 91
2009-02-03 10:59 51°31.288 2°52.587 8.1 12 1.8 100000 92
2009-02-03 11:00 51°31.293 2°52.595 7.3 19 1.9 100000 92
2009-02-03 11:01 51°31.298 2°52.595 7.9 9 1.9 100000 91
2009-02-03 11:02 51°31.303 2°52.594 6.8 1 1.8 100000 91
2009-02-03 11:03 51°31.304 2°52.595 6.3 351 1.8 100000 91
2009-02-03 11:04 51°31.302 2°52.597 7.3 350 1.7 100000 91
2009-02-03 11:05 51°31.3 2°52.6 6.9 350 1.7 99990 91
2009-02-03 11:06 51°31.298 2°52.602 6.4 349 1.7 100000 90
2009-02-03 11:07 51°31.297 2°52.604 5.7 352 1.7 100000 91
2009-02-03 11:08 51°31.298 2°52.605 7.2 347 1.8 100010 90
2009-02-03 11:09 51°31.298 2°52.605 6.3 349 1.8 100000 91
2009-02-03 11:10 51°31.298 2°52.606 6.7 344 1.8 100000 91
2009-02-03 11:11 51°31.297 2°52.606 7.2 343 1.8 100000 90
2009-02-03 11:12 51°31.297 2°52.606 6.6 342 1.8 100000 90
2009-02-03 11:13 51°31.297 2°52.606 6.5 341 1.8 100000 90
2009-02-03 11:14 51°31.297 2°52.607 6.4 343 1.8 99990 90
2009-02-03 11:15 51°31.298 2°52.607 7.2 339 1.8 100000 88
2009-02-03 11:16 51°31.297 2°52.606 5.5 340 1.8 100000 89
2009-02-03 11:17 51°31.298 2°52.606 7.4 343 1.9 100000 90
2009-02-03 11:18 51°31.298 2°52.607 6.6 347 1.9 100000 88
2009-02-03 11:19 51°31.297 2°52.607 7 344 1.9 99990 89
2009-02-03 11:20 51°31.296 2°52.608 6.7 349 1.8 100000 89
2009-02-03 11:21 51°31.295 2°52.608 5.8 351 1.8 100000 89
2009-02-03 11:22 51°31.294 2°52.609 6.9 346 1.9 100010 89
2009-02-03 11:23 51°31.293 2°52.609 7.6 350 1.9 100000 90
2009-02-03 11:24 51°31.294 2°52.609 7.5 350 1.8 100010 90
2009-02-03 11:25 51°31.295 2°52.608 7.5 348 1.8 100010 89
2009-02-03 11:26 51°31.296 2°52.608 6 347 1.8 100010 89
2009-02-03 11:27 51°31.296 2°52.607 6.1 346 1.9 100010 89
2009-02-03 11:28 51°31.296 2°52.607 6.4 348 1.9 100010 89
2009-02-03 11:29 51°31.296 2°52.607 6.5 350 1.9 100010 89
2009-02-03 11:30 51°31.295 2°52.607 8.1 346 1.9 100020 90
2009-02-03 11:31 51°31.294 2°52.606 7 348 1.9 100010 89
2009-02-03 11:32 51°31.294 2°52.606 5.9 344 1.9 100000 89
2009-02-03 11:33 51°31.294 2°52.607 6.6 354 1.9 100010 90
2009-02-03 11:34 51°31.293 2°52.608 7.1 350 2 100010 90
2009-02-03 11:35 51°31.294 2°52.608 7.2 353 2 100010 89
2009-02-03 11:36 51°31.294 2°52.608 7.9 353 2 100000 88
2009-02-03 11:37 51°31.294 2°52.608 5.6 352 2 100020 88
2009-02-03 11:38 51°31.293 2°52.607 6.6 353 2.1 100010 89
2009-02-03 11:39 51°31.293 2°52.606 7.2 351 2.2 100010 89
2009-02-03 11:40 51°31.294 2°52.606 6.8 356 2.1 100010 89
2009-02-03 11:41 51°31.294 2°52.605 7.1 358 2.1 100010 89
2009-02-03 11:42 51°31.295 2°52.604 6.7 359 2.1 100010 87
2009-02-03 11:43 51°31.296 2°52.602 5.6 1 2.1 100010 87
2009-02-03 11:44 51°31.296 2°52.602 6.3 4 2.1 100010 88
2009-02-03 11:45 51°31.297 2°52.6 5 3 2.1 100010 88
2009-02-03 11:46 51°31.296 2°52.598 5.8 7 2.2 100010 87
2009-02-03 11:47 51°31.294 2°52.593 5.7 2 2.1 100010 86
2009-02-03 11:48 51°31.288 2°52.584 6.9 346 2.2 100020 87
2009-02-03 11:49 51°31.281 2°52.576 6.9 336 2.1 100010 86
2009-02-03 11:50 51°31.276 2°52.575 7.6 343 2.2 100020 87
2009-02-03 11:51 51°31.262 2°52.576 9.2 351 2.2 100010 86
2009-02-03 11:52 51°31.188 2°52.54 9.4 330 2.2 100000 87
2009-02-03 11:53 51°31.105 2°52.375 12.3 328 2.2 100000 87
2009-02-03 11:54 51°31.006 2°52.164 12.5 326 2.2 100000 85
2009-02-03 11:55 51°30.901 2°51.929 13.1 325 2.2 100000 86
2009-02-03 11:56 51°30.795 2°51.664 12.7 327 2.2 100000 86
2009-02-03 11:57 51°30.685 2°51.379 14.3 325 2.2 100010 86
2009-02-03 11:58 51°30.581 2°51.087 15.6 324 2.2 100000 85
2009-02-03 11:59 51°30.473 2°50.796 12.3 326 2.2 100000 84
2009-02-03 12:00 51°30.366 2°50.504 14.2 325 2.2 100010 84
2009-02-03 12:01 51°30.256 2°50.212 11.9 326 2.3 100010 85
2009-02-03 12:02 51°30.144 2°49.924 12.3 327 2.3 100020 83
2009-02-03 12:03 51°30.03 2°49.637 15.8 325 2.3 100010 82
2009-02-03 12:04 51°29.919 2°49.347 14.5 325 2.4 100020 82
2009-02-03 12:05 51°29.83 2°49.038 12.5 324 2.4 100000 82
2009-02-03 12:06 51°29.747 2°48.724 11 324 2.4 100010 81
2009-02-03 12:07 51°29.656 2°48.409 14.9 326 2.5 100000 82
2009-02-03 12:08 51°29.57 2°48.097 12.7 323 2.5 100000 81
2009-02-03 12:09 51°29.483 2°47.791 15.2 322 2.5 100010 80
2009-02-03 12:10 51°29.395 2°47.48 12.3 325 2.5 99990 79
2009-02-03 12:11 51°29.306 2°47.168 15.9 325 2.6 100010 77
2009-02-03 12:12 51°29.215 2°46.858 13.8 324 2.6 99990 78
2009-02-03 12:13 51°29.13 2°46.541 14.6 322 2.7 100000 77
2009-02-03 12:14 51°29.066 2°46.212 12 321 2.7 100010 77
2009-02-03 12:15 51°29.008 2°45.879 11.4 324 2.7 100000 78
2009-02-03 12:16 51°28.948 2°45.547 12.1 321 2.7 99990 78
2009-02-03 12:17 51°28.888 2°45.216 13.6 322 2.7 100000 77
2009-02-03 12:18 51°28.829 2°44.884 15 323 2.6 99970 76
2009-02-03 12:19 51°28.762 2°44.552 11.6 321 2.7 99980 76
2009-02-03 12:20 51°28.692 2°44.225 14.7 321 2.7 99980 77
2009-02-03 12:21 51°28.619 2°43.893 12.8 323 2.7 99980 76
2009-02-03 12:22 51°28.549 2°43.573 11.7 321 2.7 99980 76
2009-02-03 12:23 51°28.477 2°43.247 14.2 321 2.8 99980 76
2009-02-03 12:24 51°28.41 2°42.92 15.6 321 2.8 99990 76
2009-02-03 12:25 51°28.335 2°42.597 15.2 323 2.8 99980 74
2009-02-03 12:26 51°28.25 2°42.279 14.8 323 2.9 99990 74
2009-02-03 12:27 51°28.166 2°41.961 12.6 322 2.8 99980 74
2009-02-03 12:28 51°28.077 2°41.647 14.7 322 2.8 99990 75
2009-02-03 12:29 51°27.986 2°41.334 12.7 325 2.8 100010 74
2009-02-03 12:30 51°27.894 2°41.021 11.7 325 2.8 99990 75
2009-02-03 12:31 51°27.799 2°40.712 12.4 327 2.9 99980 76
2009-02-03 12:32 51°27.707 2°40.399 13.5 327 2.9 99990 76
2009-02-03 12:33 51°27.613 2°40.088 11.7 325 2.8 99990 76
2009-02-03 12:34 51°27.52 2°39.776 12.4 324 2.9 100000 76
2009-02-03 12:35 51°27.43 2°39.462 15 321 2.9 99980 75
2009-02-03 12:36 51°27.339 2°39.147 11.7 325 2.8 99990 75
2009-02-03 12:37 51°27.235 2°38.843 12.1 323 2.9 99990 75
2009-02-03 12:38 51°27.131 2°38.539 13.7 320 2.9 99980 73
2009-02-03 12:39 51°26.996 2°38.266 14.4 328 2.8 100000 72
2009-02-03 12:40 51°26.853 2°38.001 14.1 329 2.8 100000 71
2009-02-03 12:41 51°26.71 2°37.737 13.8 328 2.8 99990 72
2009-02-03 12:42 51°26.563 2°37.47 12.6 328 2.7 100000 72
2009-02-03 12:43 51°26.424 2°37.206 14 329 2.7 100000 72
2009-02-03 12:44 51°26.283 2°36.932 13.8 325 2.8 100000 73
2009-02-03 12:45 51°26.144 2°36.672 14 330 2.8 99990 70
2009-02-03 12:46 51°26.006 2°36.402 12 326 2.8 100010 71
2009-02-03 12:47 51°25.865 2°36.136 12.6 329 2.8 100000 71
2009-02-03 12:48 51°25.725 2°35.871 11.7 330 2.8 100000 72
2009-02-03 12:49 51°25.605 2°35.581 15.7 325 2.8 100000 71
2009-02-03 12:50 51°25.506 2°35.272 12.1 322 2.8 99990 69
2009-02-03 12:51 51°25.409 2°34.959 12 321 2.9 100000 71
2009-02-03 12:52 51°25.308 2°34.643 13.8 325 3 99990 70
2009-02-03 12:53 51°25.209 2°34.332 13.6 326 3 99990 69
2009-02-03 12:54 51°25.107 2°34.021 13.6 323 3 99990 70
2009-02-03 12:55 51°25.003 2°33.709 12.4 325 3 100000 70
2009-02-03 12:56 51°24.906 2°33.399 14.1 324 3 100000 69
2009-02-03 12:57 51°24.801 2°33.083 14.5 323 3 99980 69
2009-02-03 12:58 51°24.704 2°32.774 11 326 3.1 99990 68
2009-02-03 12:59 51°24.604 2°32.454 13.3 324 3.1 99990 69
2009-02-03 13:00 51°24.505 2°32.147 12.3 325 3.1 99980 69
2009-02-03 13:01 51°24.405 2°31.832 15 323 3.1 99970 68
2009-02-03 13:02 51°24.307 2°31.521 12.7 326 3.1 99990 69
2009-02-03 13:03 51°24.206 2°31.211 14.7 326 3.1 99980 71
2009-02-03 13:04 51°24.1 2°30.906 13.8 325 3.1 99980 69
2009-02-03 13:05 51°24.002 2°30.6 13.3 323 3.1 99980 69
2009-02-03 13:06 51°23.913 2°30.323 12.7 324 3.1 99970 71
2009-02-03 13:07 51°23.842 2°30.12 9.9 324 3.2 99980 70
2009-02-03 13:08 51°23.798 2°30.002 8.4 323 3.1 99980 69
2009-02-03 13:09 51°23.765 2°29.925 7.4 37 3.1 99990 70
2009-02-03 13:10 51°23.754 2°29.865 5.9 239 3.1 99980 69
2009-02-03 13:11 51°23.748 2°29.815 6.2 31 3.2 99990 71
2009-02-03 13:12 51°23.737 2°29.77 5.8 32 3.2 99990 71
2009-02-03 13:13 51°23.728 2°29.738 6.2 31 3.2 99990 68
2009-02-03 13:14 51°23.722 2°29.713 6 239 3.2 99980 69
2009-02-03 13:15 51°23.717 2°29.691 7.8 255 3.3 99990 69
2009-02-03 13:16 51°23.737 2°29.656 4.7 37 3.3 99990 69
2009-02-03 13:17 51°23.759 2°29.684 5.9 33 3.3 99990 72
2009-02-03 13:18 51°23.743 2°29.735 5.1 32 3.2 99990 69
2009-02-03 13:19 51°23.738 2°29.796 4.8 36 3.2 99990 69
2009-02-03 13:20 51°23.747 2°29.835 4.1 38 3.1 99990 69
2009-02-03 13:21 51°23.755 2°29.852 3.5 35 3 100000 69
2009-02-03 13:22 51°23.756 2°29.855 4.7 37 3.2 100000 69
2009-02-03 13:23 51°23.752 2°29.854 5.1 31 3.1 100000 70
2009-02-03 13:24 51°23.744 2°29.846 6.1 37 3.1 99990 71
2009-02-03 13:25 51°23.735 2°29.831 5.9 33 3.1 99990 71
2009-02-03 13:26 51°23.725 2°29.816 5.7 33 3 99990 71
2009-02-03 13:27 51°23.715 2°29.803 6.5 21 3 99990 72
2009-02-03 13:28 51°23.704 2°29.796 6.3 20 3 99980 71
2009-02-03 13:29 51°23.691 2°29.796 4.9 25 3 99990 70
2009-02-03 13:30 51°23.676 2°29.794 5.6 22 3 99990 70
2009-02-03 13:31 51°23.659 2°29.813 4.8 29 3 99990 71
2009-02-03 13:32 51°23.668 2°29.843 3.7 36 3 99990 69
2009-02-03 13:33 51°23.69 2°29.83 4.6 270 3.1 99990 71
2009-02-03 13:34 51°23.708 2°29.807 4.5 36 3.2 99990 71
2009-02-03 13:35 51°23.724 2°29.802 2.2 32 3.2 99980 71
2009-02-03 13:36 51°23.738 2°29.811 3.8 36 3.4 99990 70
2009-02-03 13:37 51°23.745 2°29.817 3.7 38 3.3 99990 70
2009-02-03 13:38 51°23.748 2°29.821 3.2 37 3.3 99990 71
2009-02-03 13:39 51°23.75 2°29.822 1.9 36 3.2 99980 69
2009-02-03 13:40 51°23.75 2°29.82 3.9 36 3.5 99980 69
2009-02-03 13:41 51°23.75 2°29.815 3.1 32 3.4 99990 65
2009-02-03 13:42 51°23.75 2°29.808 4 38 3.8 99990 68
2009-02-03 13:43 51°23.75 2°29.799 5.1 33 3.5 99980 64
2009-02-03 13:44 51°23.746 2°29.786 5.6 36 3.4 99980 67
2009-02-03 13:45 51°23.736 2°29.776 4.9 325 3.3 99980 68
2009-02-03 13:46 51°23.733 2°29.765 5.1 37 3.3 99980 69
2009-02-03 13:47 51°23.748 2°29.767 3.9 33 3.2 99980 67
2009-02-03 13:48 51°23.746 2°29.766 5.2 37 3.2 99980 68
2009-02-03 13:49 51°23.738 2°29.764 4.6 32 3.1 99980 68
2009-02-03 13:50 51°23.725 2°29.782 5.4 30 3.1 99970 70
2009-02-03 13:51 51°23.712 2°29.791 4.7 24 3.1 99970 69
2009-02-03 13:52 51°23.698 2°29.797 5.8 20 3.2 99970 70
2009-02-03 13:53 51°23.686 2°29.821 5 40 3.3 99980 71
2009-02-03 13:54 51°23.69 2°29.847 2.4 36 3.1 99970 68
2009-02-03 13:55 51°23.706 2°29.845 5.4 268 3.2 99980 68
2009-02-03 13:56 51°23.727 2°29.822 4.9 34 3.2 99970 68
2009-02-03 13:57 51°23.747 2°29.799 4 267 3.1 99960 68
2009-02-03 13:58 51°23.753 2°29.78 3.5 264 3.1 99970 67
2009-02-03 13:59 51°23.751 2°29.762 4 262 3.1 99980 68
2009-02-03 14:00 51°23.74 2°29.758 4.6 267 3.1 99970 67
2009-02-03 14:01 51°23.724 2°29.763 5.7 37 3.2 99980 68
2009-02-03 14:02 51°23.703 2°29.766 5.3 268 3.1 99970 67
2009-02-03 14:03 51°23.69 2°29.763 4.3 36 3.2 99970 70
2009-02-03 14:04 51°23.696 2°29.76 4.6 38 3.1 99980 67
2009-02-03 14:05 51°23.718 2°29.752 4 37 3.1 99980 68
2009-02-03 14:06 51°23.739 2°29.76 4.5 35 3.1 99980 68
2009-02-03 14:07 51°23.745 2°29.789 4.7 37 3.2 99980 68
2009-02-03 14:08 51°23.741 2°29.812 5 32 3.1 99970 68
2009-02-03 14:09 51°23.734 2°29.828 5.7 30 3.2 99980 70
2009-02-03 14:10 51°23.725 2°29.839 4.9 28 3.1 99970 67
2009-02-03 14:11 51°23.714 2°29.844 5.2 24 3.1 99980 67
2009-02-03 14:12 51°23.703 2°29.846 5.5 12 3.2 99970 70
2009-02-03 14:13 51°23.692 2°29.846 5.3 14 3.2 99980 70
2009-02-03 14:14 51°23.683 2°29.846 5.8 11 3.2 99970 72
2009-02-03 14:15 51°23.674 2°29.846 5.1 17 3.2 99970 69
2009-02-03 14:16 51°23.656 2°29.859 6.5 7 3.2 99970 68
2009-02-03 14:17 51°23.584 2°29.98 7.7 353 3.1 99970 68
2009-02-03 14:18 51°23.456 2°30.203 8.8 350 3 99960 69
2009-02-03 14:19 51°23.275 2°30.351 10.5 340 2.9 99950 69
2009-02-03 14:20 51°23.074 2°30.435 11.7 340 3 99970 70
2009-02-03 14:21 51°22.874 2°30.521 12.2 342 3 99960 69
2009-02-03 14:22 51°22.696 2°30.663 9 349 2.9 99960 69
2009-02-03 14:23 51°22.587 2°30.925 7.8 354 2.9 99970 69
2009-02-03 14:24 51°22.51 2°31.219 9.4 353 2.8 99960 70
2009-02-03 14:25 51°22.418 2°31.5 7.1 351 2.8 99970 71
2009-02-03 14:26 51°22.31 2°31.772 8.7 348 2.7 99960 71
2009-02-03 14:27 51°22.199 2°32.041 9.5 351 2.7 99970 71
2009-02-03 14:28 51°22.088 2°32.308 9.8 350 2.7 99960 70
2009-02-03 14:29 51°21.975 2°32.577 7.9 352 2.6 99960 69
2009-02-03 14:30 51°21.861 2°32.848 8.5 350 2.6 99970 69
2009-02-03 14:31 51°21.746 2°33.12 9.6 350 2.7 99960 68
2009-02-03 14:32 51°21.629 2°33.393 8.5 348 2.7 99970 69
2009-02-03 14:33 51°21.517 2°33.667 7.9 347 2.6 99970 69
2009-02-03 14:34 51°21.404 2°33.936 7.6 349 2.6 99960 70
2009-02-03 14:35 51°21.289 2°34.203 8.4 349 2.6 99970 70
2009-02-03 14:36 51°21.177 2°34.471 8.9 347 2.7 99970 69
2009-02-03 14:37 51°21.072 2°34.746 9.3 351 2.6 99960 70
2009-02-03 14:38 51°20.962 2°35.014 8.1 347 2.7 99960 70
2009-02-03 14:39 51°20.853 2°35.287 8.7 349 2.6 99970 72
2009-02-03 14:40 51°20.745 2°35.562 8.2 345 2.6 99970 72
2009-02-03 14:41 51°20.635 2°35.836 8.5 346 2.5 99960 71
2009-02-03 14:42 51°20.524 2°36.112 8.3 345 2.5 99970 71
2009-02-03 14:43 51°20.403 2°36.378 9 352 2.5 99970 71
2009-02-03 14:44 51°20.284 2°36.645 9.7 348 2.5 99960 72
2009-02-03 14:45 51°20.165 2°36.911 9.5 350 2.5 99970 73
2009-02-03 14:46 51°20.049 2°37.181 8.4 347 2.5 99970 72
2009-02-03 14:47 51°19.932 2°37.448 7 349 2.4 99970 71
2009-02-03 14:48 51°19.816 2°37.719 9.4 348 2.5 99970 73
2009-02-03 14:49 51°19.699 2°37.988 8.3 349 2.4 99960 72
2009-02-03 14:50 51°19.582 2°38.259 10.1 351 2.4 99980 72
2009-02-03 14:51 51°19.464 2°38.53 8.2 349 2.4 99970 72
2009-02-03 14:52 51°19.346 2°38.797 9.4 349 2.4 99980 74
2009-02-03 14:53 51°19.23 2°39.066 8.6 348 2.3 99970 72
2009-02-03 14:54 51°19.113 2°39.336 9.3 348 2.3 99980 72
2009-02-03 14:55 51°18.998 2°39.608 7.1 353 2.3 99970 72
2009-02-03 14:56 51°18.941 2°39.915 5.6 356 2.3 99980 73
2009-02-03 14:57 51°18.924 2°40.236 6.3 353 2.3 99990 73
2009-02-03 14:58 51°18.895 2°40.559 6.5 349 2.3 99980 73
2009-02-03 14:59 51°18.856 2°40.879 5.8 354 2.3 99980 74
2009-02-03 15:00 51°18.786 2°41.188 7.8 350 2.3 99980 72
2009-02-03 15:01 51°18.676 2°41.463 8.6 350 2.3 99970 73
2009-02-03 15:02 51°18.546 2°41.717 8.9 350 2.4 99970 73
2009-02-03 15:03 51°18.416 2°41.973 10 347 2.3 99970 72
2009-02-03 15:04 51°18.288 2°42.231 9.7 349 2.4 99970 72
2009-02-03 15:05 51°18.162 2°42.488 8.6 351 2.3 99970 73
2009-02-03 15:06 51°18.041 2°42.752 8.9 348 2.3 99970 73
2009-02-03 15:07 51°17.916 2°43.012 7.6 347 2.3 99970 72
2009-02-03 15:08 51°17.775 2°43.253 8.2 346 2.3 99970 72
2009-02-03 15:09 51°17.632 2°43.498 8.8 347 2.3 99970 72
2009-02-03 15:10 51°17.489 2°43.738 9.1 348 2.3 99980 71
2009-02-03 15:11 51°17.344 2°43.976 9.7 351 2.3 99960 71
2009-02-03 15:12 51°17.201 2°44.212 9.8 347 2.3 99970 71
2009-02-03 15:13 51°17.059 2°44.45 8.4 348 2.3 99970 71
2009-02-03 15:14 51°16.917 2°44.685 9 348 2.3 99980 72
2009-02-03 15:15 51°16.773 2°44.918 9.1 348 2.3 99970 72
2009-02-03 15:16 51°16.63 2°45.154 9.2 346 2.3 99970 72
2009-02-03 15:17 51°16.487 2°45.39 9.9 348 2.4 99970 73
2009-02-03 15:18 51°16.344 2°45.626 8.7 349 2.4 99980 71
2009-02-03 15:19 51°16.2 2°45.866 9.6 349 2.4 99980 71
2009-02-03 15:20 51°16.065 2°46.121 8.2 349 2.4 99970 73
2009-02-03 15:21 51°15.96 2°46.412 8.9 350 2.4 99980 71
2009-02-03 15:22 51°15.885 2°46.722 6.5 352 2.3 99980 72
2009-02-03 15:23 51°15.846 2°47.052 7.3 351 2.3 99980 73
2009-02-03 15:24 51°15.801 2°47.378 7 351 2.3 99980 72
2009-02-03 15:25 51°15.753 2°47.704 6.9 349 2.3 99990 71
2009-02-03 15:26 51°15.698 2°48.028 6.4 345 2.3 99990 70
2009-02-03 15:27 51°15.648 2°48.355 6.4 350 2.3 99990 72
2009-02-03 15:28 51°15.596 2°48.68 6.5 348 2.3 99990 70
2009-02-03 15:29 51°15.574 2°49.016 6.6 350 2.3 100000 70
2009-02-03 15:30 51°15.563 2°49.359 6.1 350 2.3 99990 71
2009-02-03 15:31 51°15.557 2°49.702 5.5 351 2.3 99990 72
2009-02-03 15:32 51°15.549 2°50.047 5.2 351 2.3 99990 71
2009-02-03 15:33 51°15.543 2°50.392 6.1 354 2.3 99990 71
2009-02-03 15:34 51°15.532 2°50.735 5.8 351 2.3 99990 71
2009-02-03 15:35 51°15.522 2°51.077 5.6 350 2.3 99990 71
2009-02-03 15:36 51°15.498 2°51.415 5.3 351 2.3 99990 71
2009-02-03 15:37 51°15.459 2°51.75 6.4 351 2.3 99990 71
2009-02-03 15:38 51°15.415 2°52.086 6.1 352 2.3 99990 71
2009-02-03 15:39 51°15.367 2°52.419 6.4 347 2.3 99990 73
2009-02-03 15:40 51°15.308 2°52.741 7.3 346 2.3 99990 72
2009-02-03 15:41 51°15.226 2°53.046 7.7 344 2.4 99990 73
2009-02-03 15:42 51°15.145 2°53.342 8.6 345 2.3 99980 73
2009-02-03 15:43 51°15.052 2°53.632 8.3 345 2.3 99980 73
2009-02-03 15:44 51°14.937 2°53.898 8.7 347 2.3 99980 72
2009-02-03 15:45 51°14.817 2°54.162 9 347 2.3 99980 72
2009-02-03 15:46 51°14.699 2°54.43 7.6 344 2.3 99980 72
2009-02-03 15:47 51°14.572 2°54.69 9.6 344 2.3 99990 73
2009-02-03 15:48 51°14.439 2°54.94 7.9 343 2.3 99980 72
2009-02-03 15:49 51°14.31 2°55.176 8.2 356 2.3 99990 72
2009-02-03 15:50 51°14.186 2°55.353 5.8 339 2.3 99990 73
2009-02-03 15:51 51°14.054 2°55.466 7.2 337 2.4 99990 71
2009-02-03 15:52 51°13.92 2°55.561 7.2 338 2.4 99990 71
2009-02-03 15:53 51°13.797 2°55.657 5.4 340 2.4 99990 71
2009-02-03 15:55 51°13.671 2°55.911 2.6 353 2.4 100000 70
2009-02-03 15:56 51°13.66 2°55.957 2.4 26 2.4 100000 71
2009-02-03 15:57 51°13.661 2°55.959 2.7 30 2.4 100000 71
2009-02-03 15:58 51°13.662 2°55.96 2 30 2.4 100000 70
2009-02-03 15:59 51°13.663 2°55.959 2.2 28 2.4 100000 71